Terminal Aerodrome Forecast
Issued by NWS Duluth, MN

Home | Current Version | Previous Version | Text Only | Print | Product List | Glossary On
Versions: 1 2 3 4 5 6 7 8 9 10 11 12 13 14 15 16 17 18 19 20 21 22 23 24 25 26 27 28
000
FTUS43 KDLH 162341
TAFDLH
TAF
KDLH 162341Z 1700/1724 27010KT P6SM SCT100
     FM170200 25012KT P6SM BKN090
     FM170800 24015G22KT P6SM SCT090 BKN200 WS020/26045KT
     FM171500 24016G20KT P6SM SCT100=

USA.gov is the U.S. government's official web portal to all federal, state and local government web resources and services.